createdAt,value
2019-02-27T00:01:29.363Z,99.90
2019-02-27T00:04:03.061Z,99.90
2019-02-27T00:06:35.717Z,99.90
2019-02-27T00:09:10.298Z,99.90
2019-02-27T00:11:46.672Z,99.90
2019-02-27T00:14:18.173Z,99.90
2019-02-27T00:16:50.955Z,99.90
2019-02-27T00:19:23.624Z,99.90
2019-02-27T00:21:56.161Z,99.90
2019-02-27T00:24:30.586Z,99.90
2019-02-27T00:27:03.112Z,99.90
2019-02-27T00:29:35.531Z,99.90
2019-02-27T00:32:07.876Z,99.70
2019-02-27T00:34:40.570Z,99.90
2019-02-27T00:37:13.346Z,99.20
2019-02-27T00:39:45.834Z,98.90
2019-02-27T00:42:21.473Z,99.00
2019-02-27T00:44:53.554Z,98.20
2019-02-27T00:47:25.981Z,98.40
2019-02-27T00:49:58.591Z,98.60
2019-02-27T00:52:31.032Z,98.30
2019-02-27T00:55:04.651Z,98.40
2019-02-27T00:57:37.197Z,98.40
2019-02-27T01:00:13.588Z,98.10
2019-02-27T01:02:46.321Z,97.60
2019-02-27T01:05:18.865Z,97.00
2019-02-27T01:07:53.990Z,96.80
2019-02-27T01:10:25.475Z,97.20
2019-02-27T01:12:58.807Z,97.40
2019-02-27T01:15:31.727Z,97.20
2019-02-27T01:18:04.243Z,96.80
2019-02-27T01:20:36.628Z,97.10
2019-02-27T01:23:11.047Z,97.60
2019-02-27T01:25:43.138Z,97.20
2019-02-27T01:28:15.660Z,96.50
2019-02-27T01:30:49.849Z,96.80
2019-02-27T01:33:23.230Z,97.10
2019-02-27T01:35:56.141Z,96.40
2019-02-27T01:38:29.426Z,95.40
2019-02-27T01:41:05.665Z,95.70
2019-02-27T01:43:40.059Z,96.00
2019-02-27T01:46:13.046Z,95.30
2019-02-27T01:48:45.426Z,95.80
2019-02-27T01:51:17.652Z,95.40
2019-02-27T01:53:50.082Z,94.00
2019-02-27T01:56:22.594Z,93.40
2019-02-27T01:58:54.999Z,93.50
2019-02-27T02:01:30.227Z,92.70
2019-02-27T02:04:01.655Z,92.80
2019-02-27T02:06:34.237Z,92.20
2019-02-27T02:09:09.035Z,92.70
2019-02-27T02:11:41.842Z,92.60
2019-02-27T02:14:20.948Z,91.90
2019-02-27T02:16:52.905Z,92.20
2019-02-27T02:19:27.621Z,92.50
2019-02-27T02:22:02.767Z,91.60
2019-02-27T02:24:38.008Z,91.80
2019-02-27T02:27:12.585Z,92.20
2019-02-27T02:29:47.773Z,91.70
2019-02-27T02:32:23.951Z,91.00
2019-02-27T02:34:58.871Z,90.50
2019-02-27T02:37:36.985Z,88.90
2019-02-27T02:40:10.615Z,90.00
2019-02-27T02:42:45.829Z,90.00
2019-02-27T02:45:21.678Z,89.30
2019-02-27T02:47:56.868Z,88.70
2019-02-27T02:50:32.137Z,88.20
2019-02-27T02:53:06.813Z,88.00
2019-02-27T02:55:47.523Z,90.40
2019-02-27T02:58:17.923Z,90.40
2019-02-27T03:00:53.886Z,90.40
2019-02-27T03:03:28.508Z,87.50
2019-02-27T03:06:03.255Z,86.30
2019-02-27T03:08:38.270Z,85.40
2019-02-27T03:11:18.134Z,84.80
2019-02-27T03:13:49.122Z,83.90
2019-02-27T03:16:24.114Z,81.60
2019-02-27T03:19:05.096Z,82.80
2019-02-27T03:21:35.755Z,79.70
2019-02-27T03:24:10.205Z,77.80
2019-02-27T03:26:44.892Z,80.30
2019-02-27T03:29:19.427Z,79.50
2019-02-27T03:32:00.150Z,79.60
2019-02-27T03:34:31.765Z,78.70
2019-02-27T03:37:06.442Z,78.90
2019-02-27T03:39:41.347Z,76.20
2019-02-27T03:42:16.076Z,75.30
2019-02-27T03:44:55.756Z,76.20
2019-02-27T03:47:27.586Z,78.20
2019-02-27T03:50:02.244Z,75.20
2019-02-27T03:52:37.365Z,77.20
2019-02-27T03:55:12.026Z,75.00
2019-02-27T03:58:04.892Z,76.70
2019-02-27T04:00:42.010Z,76.40
2019-02-27T04:03:18.179Z,74.70
2019-02-27T04:05:51.777Z,74.60
2019-02-27T04:08:26.329Z,76.30
2019-02-27T04:10:59.040Z,80.20
2019-02-27T04:13:31.534Z,76.40
2019-02-27T04:16:04.069Z,77.70
2019-02-27T04:18:35.306Z,77.90
2019-02-27T04:21:07.717Z,76.40
2019-02-27T04:23:40.022Z,77.80
2019-02-27T04:26:12.653Z,78.90
2019-02-27T04:28:45.192Z,79.10
2019-02-27T04:31:18.212Z,74.70
2019-02-27T04:33:50.594Z,74.20
2019-02-27T04:36:22.857Z,72.10
2019-02-27T04:38:55.285Z,71.30
2019-02-27T04:41:28.380Z,69.50
2019-02-27T04:44:04.948Z,72.40
2019-02-27T04:46:34.746Z,68.80
2019-02-27T04:49:07.333Z,67.70
2019-02-27T04:51:39.738Z,69.10
2019-02-27T04:54:12.059Z,71.70
2019-02-27T04:56:44.668Z,73.10
2019-02-27T04:59:18.683Z,70.00
2019-02-27T05:01:51.143Z,72.50
2019-02-27T05:04:23.253Z,69.90
2019-02-27T05:06:55.930Z,69.00
2019-02-27T05:09:28.403Z,70.20
2019-02-27T05:12:01.091Z,68.80
2019-02-27T05:14:33.499Z,72.60
2019-02-27T05:17:06.339Z,68.50
2019-02-27T05:19:39.227Z,70.00
2019-02-27T05:22:11.535Z,68.80
2019-02-27T05:24:44.066Z,64.80
2019-02-27T05:27:16.462Z,64.80
2019-02-27T05:29:49.085Z,67.80
2019-02-27T05:32:21.518Z,70.40
2019-02-27T05:34:54.276Z,67.50
2019-02-27T05:37:26.673Z,65.40
2019-02-27T05:39:59.302Z,66.80
2019-02-27T05:42:31.966Z,65.00
2019-02-27T05:45:04.504Z,64.10
2019-02-27T05:47:37.173Z,64.70
2019-02-27T05:50:11.762Z,66.50
2019-02-27T05:52:48.531Z,66.90
2019-02-27T05:55:18.223Z,66.40
2019-02-27T05:57:50.871Z,63.30
2019-02-27T06:00:23.975Z,67.00
2019-02-27T06:02:56.930Z,65.80
2019-02-27T06:05:29.283Z,60.40
2019-02-27T06:08:02.213Z,62.30
2019-02-27T06:10:35.237Z,62.10
2019-02-27T06:13:07.660Z,61.00
2019-02-27T06:15:40.294Z,59.30
2019-02-27T06:18:12.445Z,61.40
2019-02-27T06:20:45.079Z,61.70
2019-02-27T06:23:17.972Z,60.40
2019-02-27T06:25:50.530Z,59.30
2019-02-27T06:28:22.833Z,58.40
2019-02-27T06:30:55.618Z,58.10
2019-02-27T06:33:28.043Z,58.20
2019-02-27T06:36:00.456Z,58.20
2019-02-27T06:38:33.858Z,58.50
2019-02-27T06:41:06.631Z,57.60
2019-02-27T06:43:38.914Z,58.30
2019-02-27T06:46:11.342Z,58.50
2019-02-27T06:48:44.169Z,56.00
2019-02-27T06:51:16.652Z,57.60
2019-02-27T06:53:49.194Z,54.80
2019-02-27T06:56:22.674Z,53.40
2019-02-27T06:58:55.171Z,51.20
2019-02-27T07:01:27.842Z,53.00
2019-02-27T07:04:02.321Z,53.80
2019-02-27T07:06:34.219Z,55.60
2019-02-27T07:09:11.354Z,54.50
2019-02-27T07:11:44.888Z,56.60
2019-02-27T07:14:16.043Z,59.00
2019-02-27T07:16:48.579Z,59.30
2019-02-27T07:19:21.299Z,56.90
2019-02-27T07:21:53.607Z,54.30
2019-02-27T07:24:26.221Z,54.70
2019-02-27T07:26:59.824Z,58.90
2019-02-27T07:29:32.244Z,58.40
2019-02-27T07:32:04.576Z,55.60
2019-02-27T07:34:36.975Z,55.50
2019-02-27T07:37:10.403Z,56.50
2019-02-27T07:39:43.642Z,54.10
2019-02-27T07:42:16.187Z,56.80
2019-02-27T07:44:48.556Z,57.20
2019-02-27T07:47:21.018Z,55.30
2019-02-27T07:49:53.552Z,54.10
2019-02-27T07:52:25.976Z,55.10
2019-02-27T07:54:58.694Z,57.50
2019-02-27T07:57:31.661Z,57.90
2019-02-27T08:00:04.303Z,54.30
2019-02-27T08:02:37.536Z,55.20
2019-02-27T08:05:11.735Z,56.60
2019-02-27T08:07:48.673Z,58.30
2019-02-27T08:10:20.477Z,54.50
2019-02-27T08:12:55.621Z,53.40
2019-02-27T08:15:26.528Z,54.70
2019-02-27T08:17:59.046Z,53.80
2019-02-27T08:20:31.528Z,54.30
2019-02-27T08:23:04.031Z,55.90
2019-02-27T08:25:36.478Z,56.10
2019-02-27T08:28:09.019Z,53.80
2019-02-27T08:30:41.472Z,55.30
2019-02-27T08:33:15.210Z,52.60
2019-02-27T08:35:47.911Z,52.90
2019-02-27T08:38:20.748Z,51.40
2019-02-27T08:40:57.405Z,51.50
2019-02-27T08:43:26.958Z,52.40
2019-02-27T08:46:02.171Z,51.30
2019-02-27T08:48:33.398Z,49.20
2019-02-27T08:51:08.482Z,49.00
2019-02-27T08:53:39.894Z,49.00
2019-02-27T08:56:12.298Z,49.60
2019-02-27T08:58:45.490Z,48.80
2019-02-27T09:01:19.020Z,48.40
2019-02-27T09:03:51.812Z,49.30
2019-02-27T09:06:27.331Z,50.00
2019-02-27T09:08:57.976Z,48.50
2019-02-27T09:11:30.723Z,50.00
2019-02-27T09:14:03.559Z,51.10
2019-02-27T09:16:36.047Z,51.80
2019-02-27T09:19:09.422Z,52.90
2019-02-27T09:21:42.680Z,51.50
2019-02-27T09:24:14.998Z,52.30
2019-02-27T09:26:47.628Z,51.70
2019-02-27T09:29:20.166Z,52.10
2019-02-27T09:31:52.715Z,50.80
2019-02-27T09:34:26.829Z,50.60
2019-02-27T09:36:59.105Z,52.70
2019-02-27T09:39:31.973Z,51.60
2019-02-27T09:42:04.566Z,53.60
2019-02-27T09:44:37.270Z,54.00
2019-02-27T09:47:09.813Z,52.40
2019-02-27T09:49:42.116Z,53.00
2019-02-27T09:52:14.942Z,53.70
2019-02-27T09:54:47.571Z,53.00
2019-02-27T09:57:20.125Z,53.70
2019-02-27T09:59:53.575Z,53.80
2019-02-27T10:02:26.441Z,54.70
2019-02-27T10:05:02.915Z,55.00
2019-02-27T10:07:33.019Z,54.20
2019-02-27T10:10:05.414Z,55.60
2019-02-27T10:12:37.965Z,55.40
2019-02-27T10:15:10.586Z,55.40
2019-02-27T10:17:43.644Z,56.00
2019-02-27T10:20:16.818Z,55.20
2019-02-27T10:22:49.326Z,55.40
2019-02-27T10:25:21.727Z,55.80
2019-02-27T10:27:54.886Z,58.00
2019-02-27T10:30:27.530Z,57.20
2019-02-27T10:33:00.300Z,58.20
2019-02-27T10:35:34.764Z,59.40
2019-02-27T10:38:08.230Z,58.90
2019-02-27T10:40:40.647Z,59.10
2019-02-27T10:43:13.107Z,59.80
2019-02-27T10:45:48.563Z,61.70
2019-02-27T10:48:19.163Z,61.00
2019-02-27T10:50:51.504Z,61.60
2019-02-27T10:53:27.119Z,62.30
2019-02-27T10:55:58.008Z,63.00
2019-02-27T10:58:30.543Z,62.30
2019-02-27T11:01:03.186Z,63.40
2019-02-27T11:03:35.804Z,63.00
2019-02-27T11:06:08.660Z,64.00
2019-02-27T11:08:41.427Z,64.80
2019-02-27T11:11:16.385Z,65.70
2019-02-27T11:13:48.396Z,65.40
2019-02-27T11:16:22.128Z,66.60
2019-02-27T11:18:54.628Z,67.40
2019-02-27T11:21:27.314Z,67.80
2019-02-27T11:24:00.271Z,67.10
2019-02-27T11:26:33.875Z,67.40
2019-02-27T11:29:06.625Z,72.20
2019-02-27T11:31:42.267Z,72.70
2019-02-27T11:34:13.314Z,72.60
2019-02-27T11:36:46.222Z,73.10
2019-02-27T11:39:19.127Z,70.10
2019-02-27T11:41:51.561Z,71.30
2019-02-27T11:44:24.138Z,70.70
2019-02-27T11:46:58.964Z,71.90
2019-02-27T11:49:31.014Z,72.30
2019-02-27T11:52:03.301Z,71.50
2019-02-27T11:54:35.730Z,71.80
2019-02-27T11:57:08.147Z,71.90
2019-02-27T11:59:41.041Z,71.80
2019-02-27T12:02:13.435Z,72.00
2019-02-27T12:04:45.884Z,72.50
2019-02-27T12:07:18.674Z,72.80
2019-02-27T12:09:51.171Z,73.20
2019-02-27T12:12:24.722Z,74.70
2019-02-27T12:14:57.326Z,75.50
2019-02-27T12:17:29.924Z,76.20
2019-02-27T12:20:02.998Z,76.70
2019-02-27T12:22:35.989Z,77.80
2019-02-27T12:25:10.974Z,77.80
2019-02-27T12:27:49.283Z,79.20
2019-02-27T12:30:20.255Z,78.50
2019-02-27T12:32:55.730Z,78.90
2019-02-27T12:35:29.159Z,79.20
2019-02-27T12:38:04.522Z,79.50
2019-02-27T12:40:35.357Z,78.80
2019-02-27T12:43:08.208Z,78.70
2019-02-27T12:45:40.611Z,78.30
2019-02-27T12:48:13.347Z,78.80
2019-02-27T12:50:45.834Z,78.20
2019-02-27T12:53:21.565Z,78.00
2019-02-27T12:55:53.349Z,78.90
2019-02-27T12:58:26.411Z,77.80
2019-02-27T13:00:59.741Z,78.60
2019-02-27T13:03:32.198Z,78.40
2019-02-27T13:06:04.625Z,78.10
2019-02-27T13:08:37.519Z,78.30
2019-02-27T13:11:28.827Z,78.40
2019-02-27T13:14:01.527Z,78.80
2019-02-27T13:16:33.808Z,77.70
2019-02-27T13:19:07.080Z,78.00
2019-02-27T13:21:40.232Z,77.40
2019-02-27T13:24:15.029Z,76.80
2019-02-27T13:26:46.518Z,76.20
2019-02-27T13:29:20.551Z,76.40
2019-02-27T13:31:56.619Z,76.80
2019-02-27T13:34:34.188Z,76.80
2019-02-27T13:37:10.123Z,78.10
2019-02-27T13:39:43.672Z,79.10
2019-02-27T13:42:18.668Z,80.10
2019-02-27T13:44:50.420Z,81.00
2019-02-27T13:47:22.977Z,81.20
2019-02-27T13:49:55.416Z,82.50
2019-02-27T13:52:27.829Z,83.00
2019-02-27T13:55:00.602Z,83.80
2019-02-27T13:57:33.199Z,84.40
2019-02-27T14:00:06.918Z,85.10
2019-02-27T14:02:39.656Z,85.10
2019-02-27T14:05:12.783Z,85.00
2019-02-27T14:07:45.236Z,84.30
2019-02-27T14:10:20.664Z,84.60
2019-02-27T14:12:53.462Z,85.10
2019-02-27T14:15:27.405Z,85.30
2019-02-27T14:18:00.132Z,85.10
2019-02-27T14:20:33.162Z,84.80
2019-02-27T14:23:05.462Z,84.80
2019-02-27T14:25:38.499Z,85.80
2019-02-27T14:28:11.462Z,84.90
2019-02-27T14:30:46.797Z,84.90
2019-02-27T14:33:20.628Z,85.70
2019-02-27T14:35:53.277Z,85.10
2019-02-27T14:38:25.570Z,85.20
2019-02-27T14:40:58.052Z,84.70
2019-02-27T14:43:30.474Z,85.00
2019-02-27T14:46:03.002Z,85.30
2019-02-27T14:48:35.514Z,85.20
2019-02-27T14:51:11.077Z,84.60
2019-02-27T14:53:42.450Z,84.70
2019-02-27T14:56:15.084Z,84.90
2019-02-27T14:58:47.789Z,83.80
2019-02-27T15:01:20.317Z,83.50
2019-02-27T15:03:52.739Z,83.20
2019-02-27T15:06:25.419Z,83.50
2019-02-27T15:08:58.343Z,84.00
2019-02-27T15:11:31.796Z,84.40
2019-02-27T15:14:04.382Z,84.60
2019-02-27T15:16:37.069Z,83.90
2019-02-27T15:19:09.366Z,84.10
2019-02-27T15:21:43.899Z,84.90
2019-02-27T15:24:15.917Z,85.10
2019-02-27T15:26:50.643Z,85.60
2019-02-27T15:29:22.579Z,86.20
2019-02-27T15:31:56.658Z,86.50
2019-02-27T15:34:29.048Z,86.30
2019-02-27T15:37:04.215Z,86.30
2019-02-27T15:39:35.651Z,86.90
2019-02-27T15:42:09.695Z,86.80
2019-02-27T15:44:42.513Z,87.10
2019-02-27T15:47:15.482Z,87.00
2019-02-27T15:49:48.797Z,86.70
2019-02-27T15:52:22.387Z,87.40
2019-02-27T15:54:55.570Z,87.80
2019-02-27T15:57:28.812Z,88.50
2019-02-27T16:00:01.444Z,88.10
2019-02-27T16:02:36.749Z,88.10
2019-02-27T16:05:12.411Z,88.40
2019-02-27T16:07:48.469Z,88.40
2019-02-27T16:10:22.619Z,88.70
2019-02-27T16:12:59.574Z,89.10
2019-02-27T16:15:29.493Z,89.20
2019-02-27T16:18:04.704Z,89.00
2019-02-27T16:20:36.794Z,89.70
2019-02-27T16:23:08.994Z,89.70
2019-02-27T16:25:41.421Z,89.70
2019-02-27T16:28:16.420Z,89.70
2019-02-27T16:30:47.557Z,89.60
2019-02-27T16:33:24.039Z,89.90
2019-02-27T16:35:54.135Z,89.50
2019-02-27T16:38:28.420Z,89.60
2019-02-27T16:41:00.481Z,89.60
2019-02-27T16:43:33.083Z,90.00
2019-02-27T16:46:08.566Z,90.40
2019-02-27T16:48:39.459Z,90.40
2019-02-27T16:51:11.906Z,90.60
2019-02-27T16:53:44.425Z,90.40
2019-02-27T16:56:16.731Z,90.50
2019-02-27T16:58:49.486Z,90.40
2019-02-27T17:01:21.909Z,90.30
2019-02-27T17:04:00.268Z,90.60
2019-02-27T17:06:30.941Z,91.30
2019-02-27T17:09:03.696Z,90.90
2019-02-27T17:11:37.682Z,91.50
2019-02-27T17:14:09.924Z,91.00
2019-02-27T17:16:44.905Z,90.80
2019-02-27T17:19:17.634Z,90.90
2019-02-27T17:21:50.235Z,91.20
2019-02-27T17:24:22.931Z,91.10
2019-02-27T17:26:55.338Z,91.40
2019-02-27T17:29:28.100Z,91.60
2019-02-27T17:32:00.433Z,91.90
2019-02-27T17:34:33.079Z,91.90
2019-02-27T17:37:06.352Z,92.30
2019-02-27T17:39:39.430Z,92.70
2019-02-27T17:42:11.745Z,93.40
2019-02-27T17:44:44.469Z,92.70
2019-02-27T17:47:17.208Z,92.60
2019-02-27T17:49:50.162Z,92.30
2019-02-27T17:52:22.681Z,92.40
2019-02-27T17:54:55.439Z,92.50
2019-02-27T17:57:28.566Z,92.80
2019-02-27T18:00:01.449Z,92.80
2019-02-27T18:02:35.365Z,92.60
2019-02-27T18:05:09.938Z,92.20
2019-02-27T18:07:42.758Z,92.50
2019-02-27T18:10:17.106Z,92.50
2019-02-27T18:12:51.568Z,92.60
2019-02-27T18:15:24.750Z,91.10
2019-02-27T18:17:57.489Z,90.30
2019-02-27T18:20:31.803Z,90.00
2019-02-27T18:23:03.768Z,89.40
2019-02-27T18:25:41.099Z,89.00
2019-02-27T18:28:11.208Z,88.90
2019-02-27T18:30:43.738Z,88.80
2019-02-27T18:33:17.471Z,89.90
2019-02-27T18:35:50.115Z,89.10
2019-02-27T18:38:27.552Z,88.50
2019-02-27T18:40:56.809Z,88.50
2019-02-27T18:43:30.188Z,88.80
2019-02-27T18:46:03.532Z,88.90
2019-02-27T18:48:36.024Z,89.10
2019-02-27T18:51:08.706Z,89.50
2019-02-27T18:53:41.027Z,89.00
2019-02-27T18:56:13.567Z,88.50
2019-02-27T18:58:45.886Z,89.10
2019-02-27T19:01:18.808Z,88.70
2019-02-27T19:03:51.430Z,89.10
2019-02-27T19:06:24.037Z,89.10
2019-02-27T19:08:59.591Z,89.40
2019-02-27T19:11:30.508Z,89.70
2019-02-27T19:14:05.677Z,90.20
2019-02-27T19:16:37.134Z,90.00
2019-02-27T19:19:09.679Z,90.00
2019-02-27T19:21:42.583Z,90.00
2019-02-27T19:24:15.223Z,89.70
2019-02-27T19:26:49.484Z,89.90
2019-02-27T19:29:22.832Z,90.10
2019-02-27T19:31:55.352Z,90.30
2019-02-27T19:34:27.764Z,90.30
2019-02-27T19:37:02.544Z,90.50
2019-02-27T19:39:34.240Z,90.60
2019-02-27T19:42:06.932Z,90.80
2019-02-27T19:44:39.601Z,91.00
2019-02-27T19:47:12.088Z,90.60
2019-02-27T19:49:45.075Z,90.90
2019-02-27T19:52:17.752Z,91.40
2019-02-27T19:54:52.625Z,91.10
2019-02-27T19:57:24.114Z,91.10
2019-02-27T19:59:59.084Z,91.30
2019-02-27T20:02:30.789Z,91.50
2019-02-27T20:05:03.110Z,91.50
2019-02-27T20:07:36.497Z,91.50
2019-02-27T20:10:11.166Z,91.50
2019-02-27T20:12:43.680Z,91.80
2019-02-27T20:15:18.555Z,91.60
2019-02-27T20:17:51.292Z,91.60
2019-02-27T20:20:24.962Z,91.80
2019-02-27T20:22:57.452Z,91.90
2019-02-27T20:25:32.921Z,92.10
2019-02-27T20:28:05.760Z,92.60
2019-02-27T20:30:38.303Z,91.80
2019-02-27T20:33:10.828Z,91.80
2019-02-27T20:35:44.193Z,92.10
2019-02-27T20:38:17.821Z,92.60
2019-02-27T20:40:50.264Z,92.10
2019-02-27T20:43:22.585Z,92.10
2019-02-27T20:45:55.349Z,92.10
2019-02-27T20:48:27.823Z,92.30
2019-02-27T20:51:05.893Z,92.40
2019-02-27T20:53:36.747Z,92.40
2019-02-27T20:56:09.224Z,91.80
2019-02-27T20:58:41.542Z,92.00
2019-02-27T21:01:14.114Z,92.20
2019-02-27T21:03:46.512Z,92.00
2019-02-27T21:06:19.382Z,92.70
2019-02-27T21:08:51.684Z,93.30
2019-02-27T21:11:24.119Z,93.40
2019-02-27T21:13:56.757Z,93.70
2019-02-27T21:16:29.597Z,94.10
2019-02-27T21:19:03.221Z,94.60
2019-02-27T21:21:35.908Z,94.90
2019-02-27T21:24:08.429Z,95.10
2019-02-27T21:26:41.427Z,95.00
2019-02-27T21:29:14.355Z,95.30
2019-02-27T21:31:46.976Z,95.50
2019-02-27T21:34:20.142Z,95.30
2019-02-27T21:36:53.065Z,95.40
2019-02-27T21:39:26.207Z,95.20
2019-02-27T21:41:59.397Z,94.90
2019-02-27T21:44:32.017Z,95.00
2019-02-27T21:47:04.652Z,95.10
2019-02-27T21:49:37.167Z,95.00
2019-02-27T21:52:09.574Z,94.90
2019-02-27T21:54:42.663Z,95.20
2019-02-27T21:57:14.869Z,95.10
2019-02-27T21:59:47.347Z,95.60
2019-02-27T22:02:19.682Z,95.60
2019-02-27T22:04:52.588Z,95.50
2019-02-27T22:07:25.344Z,95.50
2019-02-27T22:09:58.186Z,95.60
2019-02-27T22:12:32.431Z,96.00
2019-02-27T22:15:04.465Z,96.10
2019-02-27T22:17:37.639Z,96.50
2019-02-27T22:20:11.486Z,96.50
2019-02-27T22:22:43.988Z,96.30
2019-02-27T22:25:16.549Z,96.10
2019-02-27T22:27:49.038Z,96.20
2019-02-27T22:30:23.471Z,96.20
2019-02-27T22:32:55.930Z,95.80
2019-02-27T22:35:30.294Z,96.20
2019-02-27T22:38:02.182Z,96.40
2019-02-27T22:40:37.906Z,96.50
2019-02-27T22:43:08.544Z,96.50
2019-02-27T22:45:43.981Z,96.40
2019-02-27T22:48:15.116Z,96.40
2019-02-27T22:50:47.652Z,96.40
2019-02-27T22:53:20.302Z,96.50
2019-02-27T22:55:52.853Z,96.20
2019-02-27T22:58:27.354Z,96.30
2019-02-27T23:01:02.742Z,97.10
2019-02-27T23:03:38.511Z,97.60
2019-02-27T23:06:12.900Z,97.30
2019-02-27T23:08:46.042Z,97.10
2019-02-27T23:11:19.871Z,96.60
2019-02-27T23:13:52.383Z,96.70
2019-02-27T23:16:24.736Z,96.90
2019-02-27T23:18:57.150Z,96.40
2019-02-27T23:21:29.907Z,96.10
2019-02-27T23:24:02.296Z,96.80
2019-02-27T23:26:34.857Z,97.20
2019-02-27T23:29:07.358Z,96.80
2019-02-27T23:31:39.864Z,96.50
2019-02-27T23:34:12.306Z,97.00
2019-02-27T23:36:44.952Z,96.50
2019-02-27T23:39:17.463Z,96.20
2019-02-27T23:41:50.051Z,96.30
2019-02-27T23:44:22.822Z,96.60
2019-02-27T23:46:57.520Z,97.10
2019-02-27T23:49:29.337Z,97.10
2019-02-27T23:52:02.042Z,97.20
2019-02-27T23:54:35.903Z,96.90
2019-02-27T23:57:08.929Z,97.00
2019-02-27T23:59:41.380Z,97.10
